Aviation Digital Data Service (ADDS)

Output produced by METARs form (1104 UTC 13 December 2017)
found at http://www.aviationweather.gov/adds/metars/
 
UKKM 131100Z 35006MPS 9999 FEW008 SCT026CB BKN041 03/02 Q1014 R33/510450 TEMPO 01007G13MPS 1200 SHSNRA BR BKN005 SCT012CB
TAF AMD UKKM 131040Z 1310/1406 35005G10MPS 6000 BKN007 OVC012 
     TEMPO 1310/1318 02007G13MPS 1200 SHSNRA BR BKN005 SCT015CB 
     TEMPO 1318/1406 0500 SHSNRA FG BKN002 BKN012CB TX04/1310Z TN00/1403Z
       
UKBB 131100Z 36005MPS 9999 SCT022 04/02 Q1013 R36R/190055 R36L/821055 NOSIG
TAF UKBB 130502Z 1306/1406 24003G08MPS 9999 BKN012 
     BECMG 1308/1310 35005G10MPS 
     TEMPO 1310/1316 2100 -SHRASN BKN006 SCT015CB 
     TEMPO 1316/1406 1000 SHRASN BR BKN004 BKN010CB TX03/1312Z TN00/1402Z
       
UKBB 131100Z 36005MPS 9999 SCT022 04/02 Q1013 R36R/190055 R36L/821055 NOSIG
TAF UKBB 130502Z 1306/1406 24003G08MPS 9999 BKN012 
     BECMG 1308/1310 35005G10MPS 
     TEMPO 1310/1316 2100 -SHRASN BKN006 SCT015CB 
     TEMPO 1316/1406 1000 SHRASN BR BKN004 BKN010CB TX03/1312Z TN00/1402Z
       
UKDD 131100Z 19004MPS 150V230 4600 OVC004 07/06 Q1014 R08/290058 NOSIG
TAF UKDD 130505Z 1306/1406 18005MPS 0200 FG VV001 
     TEMPO 1306/1309 1400 BR OVC003 
     BECMG 1309/1310 18006G11MPS 4000 BR BKN007 BKN020 
     TEMPO 1318/1406 0200 FG OVC001 TX09/1312Z TN04/1403Z
       
UKDE 131100Z 15005MPS 100V170 9999 BKN008 09/07 Q1015 R02/210370 NOSIG
TAF UKDE 130806Z 1309/1318 13005MPS 2000 BR OVC004 
     TEMPO 1309/1311 0200 FG VV001 
     BECMG 1311/1312 17006MPS 5000 BR BKN010
       
UKDR 131100Z 20005MPS 9999 OVC013 09/07 Q1013 R36/19//60 NOSIG
TAF AMD UKDR 130931Z 1309/1406 15005MPS 3100 BR BKN011 
     TEMPO 1309/1314 1100 BR OVC003 
     TEMPO 1314/1319 0400 FG VV002 
     BECMG 1319/1321 20002MPS 0400 FG VV002 
     TEMPO 1400/1406 1800 -RA BR OVC005
       
UKHH 131100Z 15004MPS 9999 BKN005 06/05 Q1014 R07/190061 BECMG 2100 BR
TAF AMD UKHH 130835Z 1309/1318 19004MPS 2100 BR BKN003 
     TEMPO 1309/1315 0400 FG OVC001 
     BECMG 1315/1316 0400 -RA FG OVC002 TX06/1313Z TN05/1318Z
       
UKKK 131100Z 02004MPS 350V050 9999 BKN021 05/02 Q1014 R26/810250 NOSIG
TAF UKKK 130508Z 1306/1406 29003G08MPS 6000 BKN012 
     TEMPO 1306/1316 32006G12MPS 1200 SHRASN BKN003 BKN015CB 
     BECMG 1316/1317 01004G09MPS 
     TEMPO 1317/1406 1000 SHRASN BR BKN003 BKN012CB TX02/1309Z TN00/1404Z
       
UKKM 131100Z 35006MPS 9999 FEW008 SCT026CB BKN041 03/02 Q1014 R33/510450 TEMPO 01007G13MPS 1200 SHSNRA BR BKN005 SCT012CB
TAF AMD UKKM 131040Z 1310/1406 35005G10MPS 6000 BKN007 OVC012 
     TEMPO 1310/1318 02007G13MPS 1200 SHSNRA BR BKN005 SCT015CB 
     TEMPO 1318/1406 0500 SHSNRA FG BKN002 BKN012CB TX04/1310Z TN00/1403Z
       
UKLI 131100Z 31002MPS 260V340 9999 -SHRASN BKN007 BKN020CB 02/02 Q1017 R28/290565 NOSIG
TAF AMD UKLI 130817Z 1309/1318 33005MPS 3100 -SHRASN BKN007 BKN015CB 
     TEMPO 1309/1315 1200 SHRASN BKN004 BKN011CB TX03/1312Z TN01/1315Z
       
UKLL 131100Z 27001MPS 3000 -SHRASN BKN002 BKN020CB 01/M00 Q1017 R31/650542 NOSIG
TAF AMD UKLL 130632Z 1306/1406 VRB02MPS 1400 -SHRASN BR BKN003 BKN015CB 
     TEMPO 1306/1309 28005MPS 0600 +SHRASN BKN002 BKN013CB 
     BECMG 1309/1311 2100 BR SCT004 BKN007 
     TEMPO 1311/1406 14004MPS 1100 SHSNRA BKN003 BKN015CB TX02/1311Z TN00/1306Z
       
UKLN 131100Z 31003MPS 280V360 4400 -SHRA BKN007 BKN033CB 03/02 Q1016 NOSIG
TAF UKLN 130812Z 1309/1318 31007G12MPS 3000 -SHRA BKN010 BKN033CB 
     TEMPO 1309/1318 1000 SHRA BR BKN003 BKN020CB TX05/1311Z TN03/1318Z
       
UKLR 131100Z 27004MPS 9999 BKN004 BKN015CB 01/01 Q1016 R29/190060 NOSIG
TAF COR UKLR 130818Z 1309/1318 26003G08MPS 2100 -SHSNRA BR BKN005 BKN013CB 
     TEMPO 1309/1312 0600 +SHSNRA BKN002 BKN010CB TX01/1312Z TN00/1318Z
       
UKLU 131100Z 32004MPS 9999 BKN050 04/02 Q1016 R10/290160 NOSIG
TAF UKLU 130804Z 1309/1318 33003MPS 9999 OVC040 
     TEMPO 1309/1315 36005G10MPS 2000 -SHRA BR BKN007 SCT015CB TX07/1312Z TN02/1318Z
       
UKOH 131100Z 20004MPS 9999 SCT010 BKN200 12/10 Q1013 R21/290060 NOSIG
TAF UKOH 130808Z 1309/1318 20005MPS 2000 BR BKN004 BKN015CB 
     TEMPO 1309/1318 0200 FG VV001
       
UKON 131100Z 18003MPS 150V230 0150 FG VV003 08/08 Q1014 NOSIG
TAF UKON 130803Z 1309/1318 19003MPS 0200 FG VV003 
     TEMPO 1309/1311 2100 BR BKN007 
     BECMG 1311/1313 2100 BR BKN007 BKN020CB 
     TEMPO 1313/1318 0200 FG VV002
       
UKOO 131100Z 17003MPS CAVOK 09/07 Q1013 R34/090060 NOSIG
TAF UKOO 130506Z 1306/1406 22003MPS 2100 BR BKN007 SCT017CB 
     TEMPO 1306/1308 0300 FG VV002 
     BECMG 1308/1309 22006G13MPS 6000 NSW 
     BECMG 1316/1317 22003MPS 2100 BR 
     TEMPO 1317/1406 0300 -SHRA FG VV002 TX10/1312Z TN00/1404Z
       
UKWW 131100Z 33005MPS 9999 OVC011 04/02 Q1014 NOSIG
TAF UKWW 130810Z 1309/1318 32005MPS 9999 BKN020 
     TEMPO 1309/1318 29007G12MPS 2100 -SHRA SCT005 BKN015CB TX05/1312Z TN02/1309Z
       
UKLN 131100Z 31003MPS 280V360 4400 -SHRA BKN007 BKN033CB 03/02 Q1016 NOSIG
TAF UKLN 130812Z 1309/1318 31007G12MPS 3000 -SHRA BKN010 BKN033CB 
     TEMPO 1309/1318 1000 SHRA BR BKN003 BKN020CB TX05/1311Z TN03/1318Z
       
UKDD 131100Z 19004MPS 150V230 4600 OVC004 07/06 Q1014 R08/290058 NOSIG
TAF UKDD 130505Z 1306/1406 18005MPS 0200 FG VV001 
     TEMPO 1306/1309 1400 BR OVC003 
     BECMG 1309/1310 18006G11MPS 4000 BR BKN007 BKN020 
     TEMPO 1318/1406 0200 FG OVC001 TX09/1312Z TN04/1403Z
       
UKLI 131100Z 31002MPS 260V340 9999 -SHRASN BKN007 BKN020CB 02/02 Q1017 R28/290565 NOSIG
TAF AMD UKLI 130817Z 1309/1318 33005MPS 3100 -SHRASN BKN007 BKN015CB 
     TEMPO 1309/1315 1200 SHRASN BKN004 BKN011CB TX03/1312Z TN01/1315Z
       
UKDR 131100Z 20005MPS 9999 OVC013 09/07 Q1013 R36/19//60 NOSIG
TAF AMD UKDR 130931Z 1309/1406 15005MPS 3100 BR BKN011 
     TEMPO 1309/1314 1100 BR OVC003 
     TEMPO 1314/1319 0400 FG VV002 
     BECMG 1319/1321 20002MPS 0400 FG VV002 
     TEMPO 1400/1406 1800 -RA BR OVC005
       
UKLL 131100Z 27001MPS 3000 -SHRASN BKN002 BKN020CB 01/M00 Q1017 R31/650542 NOSIG
TAF AMD UKLL 130632Z 1306/1406 VRB02MPS 1400 -SHRASN BR BKN003 BKN015CB 
     TEMPO 1306/1309 28005MPS 0600 +SHRASN BKN002 BKN013CB 
     BECMG 1309/1311 2100 BR SCT004 BKN007 
     TEMPO 1311/1406 14004MPS 1100 SHSNRA BKN003 BKN015CB TX02/1311Z TN00/1306Z
       
UKDE 131100Z 15005MPS 100V170 9999 BKN008 09/07 Q1015 R02/210370 NOSIG
TAF UKDE 130806Z 1309/1318 13005MPS 2000 BR OVC004 
     TEMPO 1309/1311 0200 FG VV001 
     BECMG 1311/1312 17006MPS 5000 BR BKN010
       
UKON 131100Z 18003MPS 150V230 0150 FG VV003 08/08 Q1014 NOSIG
TAF UKON 130803Z 1309/1318 19003MPS 0200 FG VV003 
     TEMPO 1309/1311 2100 BR BKN007 
     BECMG 1311/1313 2100 BR BKN007 BKN020CB 
     TEMPO 1313/1318 0200 FG VV002
       
UKOO 131100Z 17003MPS CAVOK 09/07 Q1013 R34/090060 NOSIG
TAF UKOO 130506Z 1306/1406 22003MPS 2100 BR BKN007 SCT017CB 
     TEMPO 1306/1308 0300 FG VV002 
     BECMG 1308/1309 22006G13MPS 6000 NSW 
     BECMG 1316/1317 22003MPS 2100 BR 
     TEMPO 1317/1406 0300 -SHRA FG VV002 TX10/1312Z TN00/1404Z
       
UKHH 131100Z 15004MPS 9999 BKN005 06/05 Q1014 R07/190061 BECMG 2100 BR
TAF AMD UKHH 130835Z 1309/1318 19004MPS 2100 BR BKN003 
     TEMPO 1309/1315 0400 FG OVC001 
     BECMG 1315/1316 0400 -RA FG OVC002 TX06/1313Z TN05/1318Z
       
UKLR 131100Z 27004MPS 9999 BKN004 BKN015CB 01/01 Q1016 R29/190060 NOSIG
TAF COR UKLR 130818Z 1309/1318 26003G08MPS 2100 -SHSNRA BR BKN005 BKN013CB 
     TEMPO 1309/1312 0600 +SHSNRA BKN002 BKN010CB TX01/1312Z TN00/1318Z
       
UKLU 131100Z 32004MPS 9999 BKN050 04/02 Q1016 R10/290160 NOSIG
TAF UKLU 130804Z 1309/1318 33003MPS 9999 OVC040 
     TEMPO 1309/1315 36005G10MPS 2000 -SHRA BR BKN007 SCT015CB TX07/1312Z TN02/1318Z
       
UKKK 131100Z 02004MPS 350V050 9999 BKN021 05/02 Q1014 R26/810250 NOSIG
TAF UKKK 130508Z 1306/1406 29003G08MPS 6000 BKN012 
     TEMPO 1306/1316 32006G12MPS 1200 SHRASN BKN003 BKN015CB 
     BECMG 1316/1317 01004G09MPS 
     TEMPO 1317/1406 1000 SHRASN BR BKN003 BKN012CB TX02/1309Z TN00/1404Z